• Join FlightAware (Why Join?)
  • Login
  • US Flag 
01:44PM EDT


 

Airport Tracker/Info


-or-


 

Live Flight TrackerFlight Track Log ✈ SKW6440 ✈ 18-Jun-2013 ✈ KCOS - KLAX

Flight Track Log - Related Links

Times and Time Zones

All times are in EDT time to prevent confusion due to time zone crossing. See the SKW6440 flight status page for this flight to view local times or setup timezone preferences in your user account.

Time Position Orientation Groundspeed Altitude Reporting Facility
EDT Latitude Longitude Course Direction KTS MPH feet Rate Location/Type
10:27PM 38.8689 -104.6608 241° Southwest 217 250 9,000  Level Denver Center
10:28PM 38.8161 -104.6194 149° Southeast 230 265 10,400 1,440 Climbing Denver Center
10:29PM 38.7444 -104.5628 148° Southeast 263 303 12,000 1,380 Climbing Denver Center
10:30PM 38.3234 -104.4378 152° Southeast  Level FlightAware Approximate
10:30PM 38.6756 -104.5050 147° Southeast 299 344 13,300  Level Denver Center
10:31PM 38.2596 -104.4879 247° West  Level FlightAware Approximate
10:31PM 38.6014 -104.4456 148° Southeast 320 368 14,800  Level Denver Center
10:32PM 38.2157 -104.6079 241° Southwest  Level FlightAware Approximate
10:32PM 38.5150 -104.3672 145° Southeast 336 387 16,600  Level Denver Center
10:33PM 38.4431 -104.2883 139° Southeast 347 399 18,100 1,620 Climbing Denver Center
10:34PM 38.3575 -104.1986 141° Southeast 354 407 20,000 1,140 Climbing Denver Center
10:35PM 38.2850 -104.1194 139° Southeast 356 410 20,500 900 Climbing Denver Center
10:36PM 38.1894 -104.0417 147° Southeast 364 419 21,900 840 Climbing Denver Center
10:37PM 38.1022 -103.9908 155° Southeast 361 415 22,300 480 Climbing Denver Center
10:38PM 38.0094 -103.9483 160° South 367 422 22,900 720 Climbing Denver Center
10:39PM 37.9008 -103.9033 162° South 366 421 23,800 600 Climbing Denver Center
10:40PM 37.8106 -103.9217 189° South 356 410 24,200 720 Climbing Denver Center
10:41PM 37.7717 -104.0403 248° West 340 391 25,300 960 Climbing Denver Center
10:42PM 37.7497 -104.1500 256° West 341 392 26,200 780 Climbing Denver Center
10:43PM 37.7186 -104.2794 253° West 347 399 27,000 720 Climbing Denver Center
10:44PM 37.6922 -104.3936 254° West 354 407 27,700 480 Climbing Denver Center
10:45PM 37.6600 -104.5294 253° West 362 417 28,100 240 Climbing Denver Center
10:46PM 37.6303 -104.6517 253° West 381 438 28,200 240 Climbing Denver Center
10:47PM 37.5953 -104.7975 253° West 389 448 28,600 300 Climbing Denver Center
10:48PM 37.5650 -104.9247 253° West 394 453 28,900 540 Climbing Denver Center
10:49PM 37.5294 -105.0717 253° West 394 453 29,800 780 Climbing Denver Center
10:50PM 37.4983 -105.2014 253° West 382 440 30,600 480 Climbing Denver Center
10:51PM 37.4681 -105.3222 253° West 378 435 30,800 480 Climbing Denver Center
10:52PM 37.4389 -105.4447 253° West 381 438 31,700 540 Climbing Denver Center
10:53PM 37.4036 -105.5850 252° West 378 435 32,000 120 Climbing Denver Center
10:54PM 37.3722 -105.7061 252° West 380 437 32,000  Level Denver Center
10:55PM 37.3372 -105.8517 253° West 389 448 32,000  Level Denver Center
10:57PM 37.3047 -105.9789 252° West 399 459 32,000  Level Denver Center
10:58PM 37.2617 -106.1506 253° West 404 465 32,000  Level Denver Center
10:59PM 37.2286 -106.2814 252° West 410 472 32,000  Level Denver Center
11:00PM 37.1878 -106.4344 252° West 415 478 32,000  Level Denver Center
11:01PM 37.1561 -106.5661 253° West 413 475 32,000  Level Denver Center
11:02PM 37.1158 -106.7175 252° West 410 472 32,000  Level Denver Center
11:03PM 37.0836 -106.8447 252° West 403 464 32,000  Level Denver Center
11:04PM 37.0497 -106.9733 252° West 405 466 32,000  Level Denver Center
11:05PM 37.0111 -107.1222 252° West 404 465 32,000  Level Denver Center
11:06PM 36.9767 -107.2500 251° West 405 466 32,000  Level Denver Center
11:07PM 36.9369 -107.3992 252° West 406 467 32,000  Level Denver Center
11:08PM 36.8975 -107.5478 252° West 405 466 32,000  Level Denver Center
11:09PM 36.8519 -107.7147 251° West 400 460 32,000  Level Denver Center
11:10PM 36.8117 -107.8633 251° West 404 465 32,000  Level Denver Center
11:12PM 36.7775 -107.9889 251° West 402 463 32,000  Level Denver Center
11:13PM 36.7361 -108.1608 253° West 406 467 32,000  Level Denver Center
11:14PM 36.7125 -108.2903 257° West 403 464 32,000  Level Denver Center
11:15PM 36.6850 -108.4419 257° West 404 465 32,000  Level Denver Center
11:16PM 36.6614 -108.5711 257° West 402 463 32,000  Level Denver Center
11:17PM 36.6328 -108.7211 257° West 401 461 32,000  Level Denver Center
11:18PM 36.6078 -108.8500 256° West 402 463 32,000  Level Denver Center
11:19PM 36.5836 -108.9769 257° West 397 457 32,000  Level Denver Center
11:20PM 36.5553 -109.1267 257° West 399 459 32,000  Level Denver Center
11:21PM 36.5297 -109.2564 256° West 403 464 32,000  Level Denver Center
11:22PM 36.5097 -109.3639 257° West 404 465 32,000  Level Denver Center
11:23PM 36.4756 -109.5353 256° West 402 463 32,000  Level Denver Center
11:24PM 36.4419 -109.7064 256° West 400 460 32,000  Level Denver Center
11:25PM 36.4150 -109.8353 255° West 403 464 32,000  Level Denver Center
11:26PM 36.3864 -109.9856 257° West 401 461 32,000  Level Denver Center
11:28PM 36.3339 -110.2331 255° West 403 464 32,000  Level Los Angeles Center
11:29PM 36.3075 -110.3672 256° West 401 461 32,000  Level Los Angeles Center
11:30PM 36.2806 -110.5014 256° West 402 463 32,000  Level Los Angeles Center
11:31PM 36.2528 -110.6333 255° West 398 458 32,000  Level Los Angeles Center
11:32PM 36.2247 -110.7658 255° West 398 458 32,000  Level Los Angeles Center
11:33PM 36.1922 -110.9256 256° West 399 459 32,000  Level Los Angeles Center
11:34PM 36.1656 -111.0569 256° West 400 460 32,000  Level Denver Center
11:36PM 36.1308 -111.2153 255° West 399 459 32,000  Level Denver Center
11:37PM 36.1039 -111.3469 256° West 397 457 32,000  Level Denver Center
11:38PM 36.0767 -111.4789 256° West 397 457 32,000  Level Denver Center
11:39PM 36.0489 -111.6097 255° West 395 455 32,000  Level Denver Center
11:39PM 36.0256 -111.7164 255° West 396 456 32,000  Level Los Angeles Center
11:41PM 35.9983 -111.8489 256° West 397 457 32,000  Level Los Angeles Center
11:42PM 35.9656 -112.0033 255° West 395 455 32,000  Level Los Angeles Center
11:43PM 35.9375 -112.1336 255° West 396 456 32,000  Level Los Angeles Center
11:44PM 35.9042 -112.2606 252° West 393 452 32,000  Level Los Angeles Center
11:45PM 35.8594 -112.3828 246° West 396 456 32,000  Level Los Angeles Center
11:46PM 35.8175 -112.5069 247° West 395 455 32,000  Level Los Angeles Center
11:47PM 35.7667 -112.6542 247° West 395 455 32,000  Level Los Angeles Center
11:48PM 35.7250 -112.7775 247° West 395 455 32,000  Level Los Angeles Center
11:49PM 35.6778 -112.9122 247° West 397 457 32,000  Level Los Angeles Center
11:50PM 35.6322 -113.0403 246° West 399 459 32,000  Level Los Angeles Center
11:51PM 35.5889 -113.1650 247° West 396 456 32,000  Level Los Angeles Center
11:52PM 35.5439 -113.2908 246° West 391 450 32,000  Level Los Angeles Center
11:53PM 35.5014 -113.4119 247° West 391 450 32,000  Level Los Angeles Center
11:54PM 35.4586 -113.5331 247° West 392 451 32,000  Level Los Angeles Center
11:55PM 35.4156 -113.6531 246° West 390 449 32,000  Level Los Angeles Center
11:56PM 35.3725 -113.7744 247° West 390 449 32,000  Level Los Angeles Center
11:57PM 35.3278 -113.8939 245° Southwest 390 449 32,000  Level Los Angeles Center
11:58PM 35.2747 -114.0400 246° West 383 441 32,000  Level Los Angeles Center
11:59PM 35.2308 -114.1633 246° West 389 448 32,000  Level Los Angeles Center
12:00AM 35.1856 -114.2878 246° West 397 457 32,000  Level Los Angeles Center
12:01AM 35.1494 -114.3828 245° Southwest 391 450 32,000  Level Los Angeles Center
12:02AM 35.0956 -114.5294 246° West 393 452 32,000  Level Los Angeles Center
12:03AM 35.0497 -114.6547 246° West 402 463 32,000  Level Los Angeles Center
12:04AM 35.0044 -114.7769 246° West 395 455 32,000  Level Los Angeles Center
12:05AM 34.9597 -114.8994 246° West 395 455 32,000  Level Los Angeles Center
12:06AM 34.9139 -115.0208 245° Southwest 392 451 32,000 -420 Level Los Angeles Center
12:07AM 34.8594 -115.1672 246° West 394 453 31,200 -900 Descending Los Angeles Center
12:08AM 34.8175 -115.2789 245° Southwest 364 419 30,200 -600 Descending Los Angeles Center
12:09AM 34.7794 -115.3803 245° Southwest 334 384 30,000 -120 Descending Los Angeles Center
12:10AM 34.7403 -115.4819 245° Southwest 332 382 30,000  Level Los Angeles Center
12:11AM 34.7028 -115.5817 245° Southwest 342 394 30,000  Level Los Angeles Center
12:12AM 34.6631 -115.6883 246° West 345 397 30,000  Level Los Angeles Center
12:13AM 34.6300 -115.7731 245° Southwest 346 398 30,000  Level Los Angeles Center
12:14AM 34.5697 -115.9294 245° Southwest 363 418 30,000  Level Los Angeles Center
12:15AM 34.5242 -116.0456 245° Southwest 376 433 30,000 -180 Level Los Angeles Center
12:16AM 34.4792 -116.1639 245° Southwest 383 441 29,700 -780 Descending Los Angeles Center
12:17AM 34.4333 -116.2825 245° Southwest 387 445 28,500 -1,200 Descending Los Angeles Center
12:19AM 34.3894 -116.3961 245° Southwest 377 434 27,300 -780 Descending Los Angeles Center
12:20AM 34.3453 -116.5089 245° Southwest 373 429 27,000 -840 Descending Los Angeles Center
12:21AM 34.3000 -116.6225 244° Southwest 375 432 25,600 -1,620 Descending Los Angeles Center
12:22AM 34.2561 -116.7328 244° Southwest 366 421 23,700 -1,620 Descending Los Angeles Center
12:23AM 34.2225 -116.8183 245° Southwest 355 409 22,300 -1,620 Descending Los Angeles Center
12:24AM 34.1686 -116.9539 244° Southwest 319 367 20,100 -1,500 Descending Los Angeles Center
12:25AM 34.1256 -117.0614 244° Southwest 299 344 19,000 -660 Descending Los Angeles Center
12:26AM 34.1000 -117.1333 247° West 295 339 19,000 -300 Level Southern California TRACON
12:27AM 34.0667 -117.2167 244° Southwest 304 350 18,500 -1,080 Descending Southern California TRACON
12:28AM 34.0500 -117.3167 259° West 276 318 16,900 -1,740 Descending Southern California TRACON
12:29AM 34.0333 -117.4000 256° West 278 320 15,100 -1,860 Descending Southern California TRACON
12:30AM 34.0333 -117.5000 270° West 274 315 13,200 -1,680 Descending Southern California TRACON
12:31AM 34.0333 -117.5833 270° West 273 314 11,800 -1,440 Descending Southern California TRACON
12:32AM 34.0167 -117.6833 259° West 251 289 10,400 -1,320 Descending Southern California TRACON
12:33AM 34.0167 -117.7667 270° West 270 311 9,200 -1,320 Descending Southern California TRACON
12:34AM 34.0000 -117.8667 259° West 271 312 7,800 -1,140 Descending Southern California TRACON
12:35AM 34.0000 -117.9500 270° West 262 302 7,000 -780 Descending Southern California TRACON
12:36AM 33.9833 -118.0167 253° West 202 232 6,300 -1,020 Descending Southern California TRACON
12:37AM 33.9833 -118.0833 270° West 201 231 5,000 -1,140 Descending Southern California TRACON
12:38AM 33.9833 -118.1500 270° West 205 236 4,100 -1,020 Descending Southern California TRACON
12:38AM 33.9736 -118.1939 255° West 206 237 3,400 -1,140 Descending Los Angeles Center
12:39AM 33.9669 -118.2628 263° West 209 241 2,300 -960 Descending Los Angeles Center
12:40AM 33.9603 -118.3211 262° West 188 216 1,500 -840 Descending Los Angeles Center
12:41AM 33.9572 -118.3656 265° West 155 178 700 -660 Descending Los Angeles Center
12:42AM 33.9514 -118.4119 261° West 142 163 200 -540 Descending Los Angeles Center
12:44AM 33.9425 -118.4081 180° South  Level Estimated